Terminal Aerodrome Forecast
Issued by NWS Wakefield, VA

Home | Current Version | Previous Version | Text Only | Print | Product List | Glossary On
Versions: 1 2 3 4 5 6 7 8 9 10 11 12
916
FTUS41 KAKQ 212325
TAFRIC
TAF
KRIC 212325Z 2200/2224 12003KT P6SM SCT250
     FM220800 00000KT 4SM BR SCT250
     FM221300 16005KT P6SM SCT250=

USA.gov is the U.S. government's official web portal to all federal, state and local government web resources and services.